createdAt,value
2019-02-08T00:00:28.010Z,79.51
2019-02-08T00:01:28.022Z,79.20
2019-02-08T00:02:28.011Z,79.10
2019-02-08T00:03:27.978Z,79.10
2019-02-08T00:04:27.966Z,79.72
2019-02-08T00:05:27.955Z,79.65
2019-02-08T00:06:27.948Z,79.51
2019-02-08T00:07:27.965Z,79.61
2019-02-08T00:08:27.923Z,79.30
2019-02-08T00:09:27.908Z,79.20
2019-02-08T00:10:27.910Z,79.30
2019-02-08T00:11:27.886Z,79.20
2019-02-08T00:12:27.906Z,79.41
2019-02-08T00:13:27.861Z,79.10
2019-02-08T00:14:27.863Z,79.41
2019-02-08T00:15:27.846Z,79.51
2019-02-08T00:16:27.829Z,79.20
2019-02-08T00:17:27.874Z,78.89
2019-02-08T00:18:27.808Z,79.10
2019-02-08T00:19:27.821Z,78.99
2019-02-08T00:20:27.808Z,78.89
2019-02-08T00:21:27.790Z,78.78
2019-02-08T00:22:27.778Z,79.17
2019-02-08T00:23:28.059Z,79.20
2019-02-08T00:24:27.743Z,79.20
2019-02-08T00:25:27.739Z,79.10
2019-02-08T00:26:27.742Z,78.78
2019-02-08T00:27:27.713Z,79.20
2019-02-08T00:28:27.754Z,79.30
2019-02-08T00:29:27.705Z,79.41
2019-02-08T00:30:27.686Z,79.61
2019-02-08T00:31:27.676Z,79.51
2019-02-08T00:32:27.662Z,79.34
2019-02-08T00:33:27.647Z,79.10
2019-02-08T00:34:27.659Z,79.30
2019-02-08T00:35:27.620Z,79.44
2019-02-08T00:36:27.621Z,79.61
2019-02-08T00:37:27.602Z,79.20
2019-02-08T00:38:27.592Z,79.41
2019-02-08T00:39:27.632Z,79.30
2019-02-08T00:40:27.572Z,79.20
2019-02-08T00:41:27.562Z,79.20
2019-02-08T00:42:27.544Z,78.89
2019-02-08T00:43:27.532Z,79.30
2019-02-08T00:44:27.524Z,79.20
2019-02-08T00:45:27.539Z,79.61
2019-02-08T00:46:27.502Z,79.34
2019-02-08T00:47:27.494Z,79.20
2019-02-08T00:48:27.479Z,79.51
2019-02-08T00:49:27.474Z,79.41
2019-02-08T00:50:27.485Z,79.30
2019-02-08T00:51:27.469Z,79.30
2019-02-08T00:52:27.436Z,79.24
2019-02-08T00:53:33.402Z,79.34
2019-02-08T00:54:28.426Z,79.44
2019-02-08T00:55:27.429Z,79.55
2019-02-08T00:56:27.422Z,79.34
2019-02-08T00:57:27.389Z,79.55
2019-02-08T00:58:27.370Z,79.65
2019-02-08T00:59:27.369Z,79.03
2019-02-08T01:00:27.380Z,79.76
2019-02-08T01:01:27.347Z,79.76
2019-02-08T01:02:27.356Z,79.44
2019-02-08T01:03:27.324Z,79.10
2019-02-08T01:04:27.314Z,79.44
2019-02-08T01:05:27.322Z,79.24
2019-02-08T01:06:27.314Z,79.34
2019-02-08T01:07:27.273Z,79.55
2019-02-08T01:08:27.286Z,79.44
2019-02-08T01:09:27.251Z,79.55
2019-02-08T01:10:27.244Z,79.24
2019-02-08T01:11:27.238Z,79.44
2019-02-08T01:12:27.245Z,79.44
2019-02-08T01:13:28.495Z,79.44
2019-02-08T01:14:27.225Z,79.24
2019-02-08T01:15:27.195Z,79.34
2019-02-08T01:16:27.180Z,79.34
2019-02-08T01:17:27.166Z,79.65
2019-02-08T01:18:27.183Z,79.44
2019-02-08T01:19:27.154Z,79.13
2019-02-08T01:20:27.137Z,79.44
2019-02-08T01:21:27.130Z,79.24
2019-02-08T01:22:27.131Z,79.34
2019-02-08T01:23:27.153Z,79.24
2019-02-08T01:24:27.090Z,79.65
2019-02-08T01:25:27.084Z,79.13
2019-02-08T01:26:27.071Z,79.34
2019-02-08T01:27:27.058Z,79.55
2019-02-08T01:28:27.063Z,79.13
2019-02-08T01:29:27.067Z,79.13
2019-02-08T01:30:27.026Z,79.55
2019-02-08T01:31:27.022Z,79.03
2019-02-08T01:32:27.051Z,79.65
2019-02-08T01:33:26.994Z,79.38
2019-02-08T01:34:27.004Z,79.17
2019-02-08T01:35:26.976Z,79.65
2019-02-08T01:36:26.961Z,79.76
2019-02-08T01:37:26.951Z,79.80
2019-02-08T01:38:26.941Z,80.11
2019-02-08T01:39:26.957Z,80.21
2019-02-08T01:40:26.923Z,79.80
2019-02-08T01:41:26.916Z,79.90
2019-02-08T01:42:26.897Z,79.90
2019-02-08T01:43:26.909Z,79.69
2019-02-08T01:44:26.875Z,79.90
2019-02-08T01:45:26.867Z,79.69
2019-02-08T01:46:26.860Z,79.90
2019-02-08T01:47:26.864Z,80.00
2019-02-08T01:48:26.834Z,79.80
2019-02-08T01:49:26.824Z,80.00
2019-02-08T01:50:26.851Z,80.00
2019-02-08T01:51:26.798Z,79.69
2019-02-08T01:52:26.839Z,80.11
2019-02-08T01:53:26.781Z,80.21
2019-02-08T01:54:26.771Z,80.52
2019-02-08T01:55:26.755Z,80.32
2019-02-08T01:56:26.765Z,80.00
2019-02-08T01:57:26.741Z,80.32
2019-02-08T01:58:26.749Z,80.21
2019-02-08T01:59:26.715Z,80.21
2019-02-08T02:00:26.706Z,80.11
2019-02-08T02:01:26.689Z,80.11
2019-02-08T02:02:26.705Z,80.07
2019-02-08T02:03:26.698Z,79.90
2019-02-08T02:04:26.724Z,80.00
2019-02-08T02:05:26.650Z,79.65
2019-02-08T02:06:26.639Z,80.11
2019-02-08T02:07:26.625Z,80.00
2019-02-08T02:08:26.620Z,79.90
2019-02-08T02:09:26.612Z,79.80
2019-02-08T02:10:26.627Z,79.80
2019-02-08T02:11:26.585Z,79.90
2019-02-08T02:12:26.585Z,79.90
2019-02-08T02:13:26.604Z,79.90
2019-02-08T02:14:26.553Z,79.90
2019-02-08T02:15:26.584Z,79.90
2019-02-08T02:16:26.525Z,79.90
2019-02-08T02:17:26.515Z,79.90
2019-02-08T02:18:26.537Z,79.80
2019-02-08T02:19:26.498Z,79.86
2019-02-08T02:20:26.482Z,79.90
2019-02-08T02:21:26.509Z,80.00
2019-02-08T02:22:26.470Z,80.11
2019-02-08T02:23:26.492Z,79.80
2019-02-08T02:24:26.442Z,80.00
2019-02-08T02:25:26.431Z,79.90
2019-02-08T02:26:26.457Z,80.32
2019-02-08T02:27:26.437Z,80.32
2019-02-08T02:28:26.398Z,80.21
2019-02-08T02:29:26.415Z,80.21
2019-02-08T02:30:26.388Z,80.21
2019-02-08T02:31:26.369Z,80.32
2019-02-08T02:32:26.361Z,80.32
2019-02-08T02:33:26.346Z,80.21
2019-02-08T02:34:26.385Z,80.21
2019-02-08T02:35:26.327Z,79.80
2019-02-08T02:36:26.316Z,80.00
2019-02-08T02:37:26.351Z,79.80
2019-02-08T02:38:26.301Z,80.00
2019-02-08T02:39:26.278Z,80.32
2019-02-08T02:40:26.314Z,80.42
2019-02-08T02:41:26.274Z,80.32
2019-02-08T02:42:26.285Z,80.11
2019-02-08T02:43:26.233Z,80.11
2019-02-08T02:44:26.223Z,80.21
2019-02-08T02:45:26.232Z,80.35
2019-02-08T02:46:26.210Z,80.35
2019-02-08T02:47:26.248Z,80.46
2019-02-08T02:48:26.183Z,80.87
2019-02-08T02:49:26.180Z,80.32
2019-02-08T02:50:26.157Z,80.52
2019-02-08T02:51:26.153Z,80.87
2019-02-08T02:52:26.137Z,80.66
2019-02-08T02:53:26.177Z,80.56
2019-02-08T02:54:26.123Z,80.66
2019-02-08T02:55:26.110Z,80.56
2019-02-08T02:56:26.096Z,80.66
2019-02-08T02:57:26.086Z,80.66
2019-02-08T02:58:26.107Z,80.73
2019-02-08T02:59:26.093Z,81.04
2019-02-08T03:00:26.079Z,80.94
2019-02-08T03:01:26.067Z,80.56
2019-02-08T03:02:26.034Z,80.56
2019-02-08T03:03:26.039Z,80.94
2019-02-08T03:04:26.024Z,80.98
2019-02-08T03:05:25.999Z,80.35
2019-02-08T03:06:26.008Z,80.98
2019-02-08T03:07:25.977Z,80.77
2019-02-08T03:08:25.989Z,80.98
2019-02-08T03:09:25.957Z,80.77
2019-02-08T03:10:25.949Z,81.08
2019-02-08T03:11:25.960Z,80.98
2019-02-08T03:12:25.923Z,80.87
2019-02-08T03:13:25.920Z,80.98
2019-02-08T03:14:25.934Z,80.98
2019-02-08T03:15:25.934Z,81.08
2019-02-08T03:16:25.880Z,80.87
2019-02-08T03:17:25.888Z,80.98
2019-02-08T03:18:25.860Z,80.87
2019-02-08T03:19:25.842Z,80.98
2019-02-08T03:20:25.836Z,81.18
2019-02-08T03:21:25.848Z,80.77
2019-02-08T03:22:25.810Z,80.77
2019-02-08T03:23:25.797Z,81.18
2019-02-08T03:24:25.786Z,81.18
2019-02-08T03:25:25.814Z,81.18
2019-02-08T03:26:25.768Z,80.77
2019-02-08T03:27:25.788Z,81.08
2019-02-08T03:28:25.746Z,80.46
2019-02-08T03:29:25.737Z,80.46
2019-02-08T03:30:25.728Z,80.98
2019-02-08T03:31:25.742Z,80.98
2019-02-08T03:32:25.704Z,81.18
2019-02-08T03:33:25.723Z,81.49
2019-02-08T03:34:25.710Z,81.70
2019-02-08T03:35:25.671Z,81.81
2019-02-08T03:36:25.722Z,81.60
2019-02-08T03:37:25.648Z,81.91
2019-02-08T03:38:25.656Z,82.12
2019-02-08T03:39:25.654Z,81.91
2019-02-08T03:40:25.623Z,81.49
2019-02-08T03:41:25.663Z,81.81
2019-02-08T03:42:25.594Z,81.81
2019-02-08T03:43:25.587Z,81.91
2019-02-08T03:44:25.595Z,81.95
2019-02-08T03:45:25.566Z,81.70
2019-02-08T03:46:25.565Z,81.39
2019-02-08T03:47:25.584Z,81.39
2019-02-08T03:48:25.528Z,81.49
2019-02-08T03:49:25.522Z,81.70
2019-02-08T03:50:25.503Z,81.81
2019-02-08T03:51:25.491Z,81.49
2019-02-08T03:52:25.480Z,81.49
2019-02-08T03:53:25.518Z,81.53
2019-02-08T03:54:25.520Z,81.18
2019-02-08T03:55:25.458Z,81.49
2019-02-08T03:56:25.448Z,81.70
2019-02-08T03:57:25.432Z,81.49
2019-02-08T03:58:25.471Z,81.49
2019-02-08T03:59:25.440Z,81.87
2019-02-08T04:00:25.452Z,81.91
2019-02-08T04:01:25.385Z,81.81
2019-02-08T04:02:25.435Z,81.39
2019-02-08T04:03:25.370Z,81.49
2019-02-08T04:04:25.350Z,81.70
2019-02-08T04:05:25.348Z,81.39
2019-02-08T04:06:25.356Z,81.49
2019-02-08T04:07:25.328Z,81.39
2019-02-08T04:08:25.321Z,81.49
2019-02-08T04:09:25.312Z,81.39
2019-02-08T04:10:25.332Z,81.49
2019-02-08T04:11:25.275Z,81.60
2019-02-08T04:12:25.314Z,81.60
2019-02-08T04:13:25.258Z,81.49
2019-02-08T04:14:25.250Z,81.81
2019-02-08T04:15:25.275Z,82.01
2019-02-08T04:16:25.223Z,81.81
2019-02-08T04:17:25.215Z,81.81
2019-02-08T04:18:25.202Z,81.39
2019-02-08T04:19:25.251Z,81.49
2019-02-08T04:20:25.267Z,81.49
2019-02-08T04:21:25.183Z,81.39
2019-02-08T04:22:25.162Z,81.70
2019-02-08T04:23:25.146Z,81.49
2019-02-08T04:24:29.985Z,81.70
2019-02-08T04:25:26.170Z,81.60
2019-02-08T04:26:25.121Z,81.60
2019-02-08T04:27:25.105Z,81.49
2019-02-08T04:28:25.098Z,81.49
2019-02-08T04:29:25.080Z,81.39
2019-02-08T04:30:25.073Z,81.39
2019-02-08T04:31:25.099Z,81.49
2019-02-08T04:32:25.061Z,81.70
2019-02-08T04:33:25.051Z,81.70
2019-02-08T04:34:25.030Z,81.29
2019-02-08T04:35:25.017Z,81.18
2019-02-08T04:36:25.051Z,81.56
2019-02-08T04:37:25.008Z,81.49
2019-02-08T04:38:25.030Z,81.49
2019-02-08T04:39:24.980Z,81.49
2019-02-08T04:40:24.967Z,81.49
2019-02-08T04:41:24.955Z,81.46
2019-02-08T04:42:24.976Z,81.49
2019-02-08T04:43:24.947Z,81.35
2019-02-08T04:44:24.918Z,81.70
2019-02-08T04:45:24.912Z,81.81
2019-02-08T04:46:24.895Z,81.67
2019-02-08T04:47:24.882Z,81.70
2019-02-08T04:48:24.913Z,81.60
2019-02-08T04:49:24.873Z,81.39
2019-02-08T04:50:24.849Z,81.56
2019-02-08T04:51:25.822Z,81.98
2019-02-08T04:52:24.833Z,81.81
2019-02-08T04:53:24.843Z,82.22
2019-02-08T04:54:24.810Z,82.01
2019-02-08T04:55:24.861Z,81.81
2019-02-08T04:56:24.793Z,81.70
2019-02-08T04:57:24.783Z,81.35
2019-02-08T04:58:24.866Z,81.35
2019-02-08T04:59:24.751Z,81.46
2019-02-08T05:00:24.751Z,81.29
2019-02-08T05:01:24.797Z,81.39
2019-02-08T05:02:24.719Z,81.39
2019-02-08T05:03:24.713Z,81.49
2019-02-08T05:04:24.695Z,81.49
2019-02-08T05:05:24.691Z,81.35
2019-02-08T05:06:24.675Z,81.25
2019-02-08T05:07:24.700Z,81.46
2019-02-08T05:08:24.655Z,81.25
2019-02-08T05:09:24.680Z,81.46
2019-02-08T05:10:24.634Z,81.35
2019-02-08T05:11:24.628Z,81.49
2019-02-08T05:12:24.639Z,81.60
2019-02-08T05:13:24.599Z,81.29
2019-02-08T05:14:24.591Z,82.01
2019-02-08T05:15:24.599Z,81.91
2019-02-08T05:16:24.568Z,81.46
2019-02-08T05:17:24.558Z,82.08
2019-02-08T05:18:24.541Z,82.08
2019-02-08T05:19:24.530Z,81.29
2019-02-08T05:20:24.573Z,81.29
2019-02-08T05:21:24.528Z,81.29
2019-02-08T05:22:24.516Z,81.46
2019-02-08T05:23:24.490Z,81.67
2019-02-08T05:24:24.481Z,81.67
2019-02-08T05:25:24.521Z,82.08
2019-02-08T05:26:24.455Z,81.67
2019-02-08T05:27:24.454Z,81.77
2019-02-08T05:28:24.437Z,81.77
2019-02-08T05:29:24.435Z,81.67
2019-02-08T05:30:24.416Z,81.67
2019-02-08T05:31:24.429Z,81.56
2019-02-08T05:32:24.392Z,81.98
2019-02-08T05:33:24.378Z,81.15
2019-02-08T05:34:24.369Z,81.15
2019-02-08T05:35:24.359Z,81.04
2019-02-08T05:36:24.378Z,81.04
2019-02-08T05:37:24.340Z,81.04
2019-02-08T05:38:24.340Z,80.73
2019-02-08T05:39:24.316Z,80.94
2019-02-08T05:40:24.315Z,80.83
2019-02-08T05:41:24.300Z,80.94
2019-02-08T05:42:24.330Z,80.52
2019-02-08T05:43:24.269Z,81.35
2019-02-08T05:44:24.257Z,81.46
2019-02-08T05:45:24.250Z,81.35
2019-02-08T05:46:24.253Z,82.08
2019-02-08T05:47:24.227Z,81.98
2019-02-08T05:48:24.244Z,81.98
2019-02-08T05:49:24.210Z,81.87
2019-02-08T05:50:24.190Z,81.77
2019-02-08T05:51:24.188Z,81.46
2019-02-08T05:52:24.173Z,81.98
2019-02-08T05:53:24.195Z,82.08
2019-02-08T05:54:24.209Z,81.98
2019-02-08T05:55:24.147Z,81.35
2019-02-08T05:56:24.124Z,81.04
2019-02-08T05:57:24.119Z,80.94
2019-02-08T05:58:24.147Z,80.63
2019-02-08T05:59:24.093Z,80.94
2019-02-08T06:00:24.094Z,80.94
2019-02-08T06:01:24.071Z,80.63
2019-02-08T06:02:24.060Z,80.94
2019-02-08T06:03:24.072Z,81.15
2019-02-08T06:04:24.070Z,81.15
2019-02-08T06:05:24.033Z,80.83
2019-02-08T06:06:24.016Z,80.83
2019-02-08T06:07:24.012Z,80.63
2019-02-08T06:08:23.999Z,80.52
2019-02-08T06:09:24.027Z,80.94
2019-02-08T06:10:23.978Z,80.83
2019-02-08T06:11:23.968Z,80.94
2019-02-08T06:12:23.950Z,81.04
2019-02-08T06:13:23.944Z,81.04
2019-02-08T06:14:23.982Z,80.94
2019-02-08T06:15:23.929Z,81.46
2019-02-08T06:16:23.914Z,81.98
2019-02-08T06:17:23.902Z,81.77
2019-02-08T06:18:23.886Z,81.04
2019-02-08T06:19:23.901Z,81.15
2019-02-08T06:20:23.892Z,81.04
2019-02-08T06:21:23.855Z,81.35
2019-02-08T06:22:23.954Z,81.77
2019-02-08T06:23:23.831Z,82.08
2019-02-08T06:24:23.825Z,81.98
2019-02-08T06:25:23.835Z,81.67
2019-02-08T06:26:23.801Z,81.56
2019-02-08T06:27:23.786Z,81.77
2019-02-08T06:28:23.782Z,81.56
2019-02-08T06:29:23.767Z,81.46
2019-02-08T06:30:23.795Z,81.56
2019-02-08T06:31:23.750Z,81.77
2019-02-08T06:32:23.763Z,81.67
2019-02-08T06:33:23.741Z,81.46
2019-02-08T06:34:23.721Z,81.46
2019-02-08T06:35:23.735Z,81.56
2019-02-08T06:36:23.711Z,81.67
2019-02-08T06:37:23.680Z,81.98
2019-02-08T06:38:23.696Z,81.98
2019-02-08T06:39:23.656Z,81.46
2019-02-08T06:40:23.654Z,81.04
2019-02-08T06:41:23.677Z,80.80
2019-02-08T06:42:23.621Z,80.94
2019-02-08T06:43:23.613Z,80.63
2019-02-08T06:44:23.606Z,80.94
2019-02-08T06:45:23.607Z,80.80
2019-02-08T06:46:23.643Z,80.83
2019-02-08T06:47:23.572Z,80.94
2019-02-08T06:48:23.559Z,80.73
2019-02-08T06:49:23.544Z,80.83
2019-02-08T06:50:23.540Z,80.32
2019-02-08T06:51:23.527Z,80.94
2019-02-08T06:52:23.550Z,80.83
2019-02-08T06:53:23.502Z,81.25
2019-02-08T06:54:23.539Z,81.46
2019-02-08T06:55:23.495Z,80.94
2019-02-08T06:56:23.504Z,80.94
2019-02-08T06:57:23.462Z,80.83
2019-02-08T06:58:23.453Z,81.98
2019-02-08T06:59:23.435Z,81.35
2019-02-08T07:00:23.447Z,80.69
2019-02-08T07:01:23.418Z,80.83
2019-02-08T07:02:23.429Z,80.90
2019-02-08T07:03:23.422Z,80.63
2019-02-08T07:04:23.382Z,80.63
2019-02-08T07:05:23.385Z,80.83
2019-02-08T07:06:23.367Z,80.94
2019-02-08T07:07:23.387Z,80.69
2019-02-08T07:08:23.392Z,80.59
2019-02-08T07:09:23.329Z,80.90
2019-02-08T07:10:23.321Z,81.04
2019-02-08T07:11:23.309Z,81.01
2019-02-08T07:12:23.299Z,80.80
2019-02-08T07:13:23.290Z,80.80
2019-02-08T07:14:23.303Z,80.80
2019-02-08T07:15:23.262Z,80.80
2019-02-08T07:16:23.257Z,80.69
2019-02-08T07:17:23.243Z,80.69
2019-02-08T07:18:23.237Z,80.59
2019-02-08T07:19:23.260Z,80.69
2019-02-08T07:20:23.316Z,80.59
2019-02-08T07:21:23.209Z,80.59
2019-02-08T07:22:23.207Z,81.01
2019-02-08T07:23:23.183Z,80.59
2019-02-08T07:24:23.166Z,80.80
2019-02-08T07:25:23.165Z,80.80
2019-02-08T07:26:23.177Z,80.59
2019-02-08T07:27:23.148Z,80.69
2019-02-08T07:28:23.135Z,80.90
2019-02-08T07:29:23.123Z,80.90
2019-02-08T07:30:23.109Z,80.69
2019-02-08T07:31:23.150Z,80.59
2019-02-08T07:32:23.089Z,81.01
2019-02-08T07:33:23.078Z,80.38
2019-02-08T07:34:23.069Z,80.90
2019-02-08T07:35:23.067Z,80.80
2019-02-08T07:36:23.053Z,80.59
2019-02-08T07:37:23.081Z,80.69
2019-02-08T07:38:23.014Z,80.90
2019-02-08T07:39:23.028Z,80.76
2019-02-08T07:40:22.998Z,80.45
2019-02-08T07:41:22.982Z,80.55
2019-02-08T07:42:22.977Z,80.76
2019-02-08T07:43:23.001Z,80.35
2019-02-08T07:44:22.952Z,80.35
2019-02-08T07:45:22.945Z,80.24
2019-02-08T07:46:22.930Z,80.55
2019-02-08T07:47:22.947Z,80.97
2019-02-08T07:48:22.908Z,80.24
2019-02-08T07:49:22.907Z,80.76
2019-02-08T07:50:22.907Z,80.97
2019-02-08T07:51:22.888Z,80.24
2019-02-08T07:52:22.944Z,80.35
2019-02-08T07:53:22.859Z,80.55
2019-02-08T07:54:22.849Z,80.04
2019-02-08T07:55:26.095Z,79.83
2019-02-08T07:56:22.820Z,80.10
2019-02-08T07:57:22.809Z,80.04
2019-02-08T07:58:22.831Z,80.04
2019-02-08T07:59:22.796Z,79.79
2019-02-08T08:00:22.826Z,79.90
2019-02-08T08:01:22.815Z,79.58
2019-02-08T08:02:22.765Z,79.38
2019-02-08T08:03:22.750Z,79.27
2019-02-08T08:04:22.741Z,79.17
2019-02-08T08:05:22.802Z,79.27
2019-02-08T08:06:22.718Z,79.13
2019-02-08T08:07:22.743Z,78.82
2019-02-08T08:08:22.701Z,78.61
2019-02-08T08:09:22.687Z,78.51
2019-02-08T08:10:22.688Z,78.20
2019-02-08T08:11:22.687Z,77.47
2019-02-08T08:12:22.651Z,78.09
2019-02-08T08:13:22.648Z,77.33
2019-02-08T08:14:22.638Z,77.23
2019-02-08T08:15:22.649Z,77.44
2019-02-08T08:16:22.651Z,77.54
2019-02-08T08:17:22.635Z,76.78
2019-02-08T08:18:22.615Z,76.26
2019-02-08T08:19:22.574Z,76.26
2019-02-08T08:20:22.564Z,76.26
2019-02-08T08:21:22.549Z,76.36
2019-02-08T08:22:22.610Z,76.26
2019-02-08T08:23:22.528Z,76.05
2019-02-08T08:24:22.520Z,76.36
2019-02-08T08:25:22.515Z,76.46
2019-02-08T08:26:22.502Z,76.26
2019-02-08T08:27:22.513Z,76.26
2019-02-08T08:28:22.508Z,76.26
2019-02-08T08:29:22.492Z,76.46
2019-02-08T08:30:22.491Z,75.53
2019-02-08T08:31:22.442Z,75.50
2019-02-08T08:32:22.430Z,75.29
2019-02-08T08:33:22.465Z,75.60
2019-02-08T08:34:22.404Z,75.92
2019-02-08T08:35:22.401Z,75.60
2019-02-08T08:36:22.385Z,75.09
2019-02-08T08:37:22.378Z,75.36
2019-02-08T08:38:22.372Z,75.05
2019-02-08T08:39:22.383Z,74.95
2019-02-08T08:40:22.345Z,74.53
2019-02-08T08:41:22.336Z,74.53
2019-02-08T08:42:22.320Z,74.12
2019-02-08T08:43:22.328Z,74.43
2019-02-08T08:44:22.333Z,74.32
2019-02-08T08:45:22.291Z,74.40
2019-02-08T08:46:22.276Z,74.29
2019-02-08T08:47:22.271Z,74.43
2019-02-08T08:48:22.260Z,73.25
2019-02-08T08:49:22.245Z,73.98
2019-02-08T08:50:22.260Z,73.88
2019-02-08T08:51:22.223Z,74.22
2019-02-08T08:52:22.207Z,73.88
2019-02-08T08:53:22.200Z,74.08
2019-02-08T08:54:22.198Z,74.08
2019-02-08T08:55:22.204Z,73.57
2019-02-08T08:56:22.196Z,73.25
2019-02-08T08:57:22.161Z,73.46
2019-02-08T08:58:22.146Z,73.36
2019-02-08T08:59:22.174Z,73.67
2019-02-08T09:00:22.123Z,73.67
2019-02-08T09:01:22.152Z,72.74
2019-02-08T09:02:22.107Z,73.33
2019-02-08T09:03:22.092Z,72.81
2019-02-08T09:04:22.079Z,72.60
2019-02-08T09:05:22.068Z,73.12
2019-02-08T09:06:22.092Z,72.81
2019-02-08T09:07:22.051Z,72.50
2019-02-08T09:08:22.050Z,72.50
2019-02-08T09:09:22.043Z,72.50
2019-02-08T09:10:22.057Z,71.74
2019-02-08T09:11:22.010Z,71.64
2019-02-08T09:12:22.008Z,71.43
2019-02-08T09:13:21.990Z,70.71
2019-02-08T09:14:21.995Z,70.57
2019-02-08T09:15:21.958Z,70.98
2019-02-08T09:16:21.978Z,70.78
2019-02-08T09:17:21.947Z,70.16
2019-02-08T09:18:21.972Z,70.43
2019-02-08T09:19:21.915Z,70.43
2019-02-08T09:20:21.949Z,70.23
2019-02-08T09:21:21.898Z,70.12
2019-02-08T09:22:21.904Z,69.95
2019-02-08T09:23:21.868Z,70.47
2019-02-08T09:24:21.856Z,70.26
2019-02-08T09:25:21.859Z,70.43
2019-02-08T09:26:22.187Z,69.82
2019-02-08T09:27:21.847Z,69.82
2019-02-08T09:28:21.811Z,69.71
2019-02-08T09:29:21.806Z,69.51
2019-02-08T09:30:21.871Z,69.61
2019-02-08T09:31:21.777Z,69.51
2019-02-08T09:32:21.774Z,69.09
2019-02-08T09:33:21.780Z,69.43
2019-02-08T09:34:21.753Z,69.71
2019-02-08T09:35:21.736Z,69.40
2019-02-08T09:36:21.871Z,69.61
2019-02-08T09:37:21.729Z,69.92
2019-02-08T09:38:21.708Z,69.40
2019-02-08T09:39:21.698Z,68.99
2019-02-08T09:40:21.687Z,69.09
2019-02-08T09:41:21.693Z,68.96
2019-02-08T09:42:21.663Z,68.96
2019-02-08T09:43:21.648Z,68.96
2019-02-08T09:44:21.680Z,68.34
2019-02-08T09:45:21.638Z,68.75
2019-02-08T09:46:21.674Z,68.65
2019-02-08T09:47:21.656Z,68.54
2019-02-08T09:48:21.592Z,68.75
2019-02-08T09:49:21.584Z,68.03
2019-02-08T09:50:21.574Z,67.93
2019-02-08T09:51:21.584Z,68.03
2019-02-08T09:52:21.564Z,68.24
2019-02-08T09:53:21.535Z,68.24
2019-02-08T09:54:21.533Z,68.34
2019-02-08T09:55:21.515Z,67.72
2019-02-08T09:56:21.551Z,68.30
2019-02-08T09:57:21.488Z,68.10
2019-02-08T09:58:21.490Z,67.48
2019-02-08T09:59:21.469Z,67.38
2019-02-08T10:00:21.482Z,67.03
2019-02-08T10:01:21.455Z,66.97
2019-02-08T10:02:21.464Z,67.14
2019-02-08T10:03:21.426Z,66.73
2019-02-08T10:04:21.414Z,66.66
2019-02-08T10:05:21.427Z,66.76
2019-02-08T10:06:21.396Z,67.07
2019-02-08T10:07:21.444Z,67.35
2019-02-08T10:08:21.985Z,66.94
2019-02-08T10:09:21.366Z,67.24
2019-02-08T10:10:21.398Z,67.14
2019-02-08T10:11:21.335Z,66.63
2019-02-08T10:12:21.325Z,67.11
2019-02-08T10:13:21.352Z,66.80
2019-02-08T10:14:21.335Z,66.08
2019-02-08T10:15:21.294Z,67.11
2019-02-08T10:16:21.287Z,65.98
2019-02-08T10:17:21.271Z,66.18
2019-02-08T10:18:21.308Z,66.91
2019-02-08T10:19:21.254Z,66.18
2019-02-08T10:20:21.240Z,66.91
2019-02-08T10:21:21.253Z,66.08
2019-02-08T10:22:21.215Z,66.60
2019-02-08T10:23:21.229Z,66.67
2019-02-08T10:24:21.230Z,66.80
2019-02-08T10:25:21.194Z,65.95
2019-02-08T10:26:21.168Z,65.56
2019-02-08T10:27:21.162Z,65.64
2019-02-08T10:28:21.144Z,65.36
2019-02-08T10:29:21.165Z,65.22
2019-02-08T10:30:21.132Z,65.53
2019-02-08T10:31:21.147Z,65.53
2019-02-08T10:32:21.104Z,65.33
2019-02-08T10:33:21.132Z,65.33
2019-02-08T10:34:21.128Z,64.61
2019-02-08T10:35:21.079Z,65.02
2019-02-08T10:36:21.059Z,65.12
2019-02-08T10:37:21.048Z,65.09
2019-02-08T10:38:21.034Z,64.58
2019-02-08T10:39:21.024Z,64.78
2019-02-08T10:40:21.044Z,64.47
2019-02-08T10:41:21.010Z,64.27
2019-02-08T10:42:21.006Z,64.37
2019-02-08T10:43:20.986Z,64.58
2019-02-08T10:44:21.011Z,63.82
2019-02-08T10:45:20.977Z,64.24
2019-02-08T10:46:20.975Z,64.44
2019-02-08T10:47:20.969Z,63.93
2019-02-08T10:48:20.934Z,64.44
2019-02-08T10:49:20.920Z,64.24
2019-02-08T10:50:20.957Z,63.62
2019-02-08T10:51:20.892Z,63.34
2019-02-08T10:52:20.886Z,64.03
2019-02-08T10:53:20.877Z,63.34
2019-02-08T10:54:20.863Z,64.06
2019-02-08T10:55:20.876Z,63.96
2019-02-08T10:56:20.844Z,64.34
2019-02-08T10:57:20.826Z,64.03
2019-02-08T10:58:20.816Z,63.52
2019-02-08T10:59:20.816Z,63.72
2019-02-08T11:00:20.888Z,63.62
2019-02-08T11:01:20.785Z,63.72
2019-02-08T11:02:20.772Z,63.82
2019-02-08T11:03:20.757Z,63.62
2019-02-08T11:04:20.751Z,63.42
2019-02-08T11:05:20.735Z,63.72
2019-02-08T11:06:20.782Z,63.52
2019-02-08T11:07:27.728Z,63.62
2019-02-08T11:08:21.701Z,63.72
2019-02-08T11:09:20.695Z,63.62
2019-02-08T11:10:20.682Z,63.82
2019-02-08T11:11:20.729Z,63.52
2019-02-08T11:12:20.657Z,63.39
2019-02-08T11:13:20.679Z,63.52
2019-02-08T11:14:20.635Z,63.59
2019-02-08T11:15:20.633Z,63.31
2019-02-08T11:16:20.614Z,63.52
2019-02-08T11:17:20.642Z,63.49
2019-02-08T11:18:20.609Z,63.39
2019-02-08T11:19:20.591Z,63.59
2019-02-08T11:20:20.581Z,63.28
2019-02-08T11:21:20.594Z,62.87
2019-02-08T11:22:20.580Z,62.95
2019-02-08T11:23:20.546Z,62.95
2019-02-08T11:24:20.530Z,62.81
2019-02-08T11:25:20.515Z,62.43
2019-02-08T11:26:23.043Z,62.23
2019-02-08T11:27:20.591Z,62.43
2019-02-08T11:28:20.484Z,62.12
2019-02-08T11:29:20.479Z,62.23
2019-02-08T11:30:20.465Z,61.91
2019-02-08T11:31:20.457Z,62.30
2019-02-08T11:32:20.439Z,62.43
2019-02-08T11:33:20.463Z,62.53
2019-02-08T11:34:20.424Z,62.33
2019-02-08T11:35:20.406Z,62.33
2019-02-08T11:36:20.401Z,62.25
2019-02-08T11:37:20.413Z,62.60
2019-02-08T11:38:20.377Z,62.40
2019-02-08T11:39:20.368Z,62.43
2019-02-08T11:40:20.368Z,62.19
2019-02-08T11:41:20.354Z,61.61
2019-02-08T11:42:20.479Z,61.81
2019-02-08T11:43:20.325Z,62.33
2019-02-08T11:44:20.334Z,62.60
2019-02-08T11:45:20.347Z,61.58
2019-02-08T11:46:20.293Z,61.68
2019-02-08T11:47:20.325Z,61.88
2019-02-08T11:48:20.314Z,61.58
2019-02-08T11:49:20.255Z,61.47
2019-02-08T11:50:20.323Z,62.09
2019-02-08T11:51:20.227Z,62.09
2019-02-08T11:52:20.221Z,61.68
2019-02-08T11:53:20.234Z,61.81
2019-02-08T11:54:20.221Z,61.88
2019-02-08T11:55:20.188Z,62.09
2019-02-08T11:56:20.212Z,61.79
2019-02-08T11:57:20.176Z,62.02
2019-02-08T11:58:20.154Z,61.81
2019-02-08T11:59:20.169Z,61.88
2019-02-08T12:00:20.141Z,61.68
2019-02-08T12:01:20.116Z,61.17
2019-02-08T12:02:20.109Z,61.65
2019-02-08T12:03:20.099Z,61.24
2019-02-08T12:04:20.156Z,60.63
2019-02-08T12:05:20.071Z,60.83
2019-02-08T12:06:20.067Z,60.63
2019-02-08T12:07:20.052Z,60.83
2019-02-08T12:08:20.048Z,61.35
2019-02-08T12:09:20.064Z,61.04
2019-02-08T12:10:20.030Z,61.24
2019-02-08T12:11:20.030Z,61.24
2019-02-08T12:12:20.032Z,61.04
2019-02-08T12:13:19.987Z,61.00
2019-02-08T12:14:19.998Z,60.73
2019-02-08T12:15:19.986Z,60.91
2019-02-08T12:16:19.950Z,60.91
2019-02-08T12:17:19.948Z,60.49
2019-02-08T12:18:19.935Z,60.83
2019-02-08T12:19:19.991Z,61.04
2019-02-08T12:20:19.949Z,61.04
2019-02-08T12:21:19.899Z,61.86
2019-02-08T12:22:19.888Z,61.55
2019-02-08T12:23:19.877Z,61.21
2019-02-08T12:24:19.866Z,61.04
2019-02-08T12:25:19.889Z,61.04
2019-02-08T12:26:19.899Z,61.00
2019-02-08T12:27:19.829Z,61.11
2019-02-08T12:28:19.816Z,61.00
2019-02-08T12:29:19.819Z,61.21
2019-02-08T12:30:19.806Z,61.42
2019-02-08T12:31:19.784Z,61.21
2019-02-08T12:32:19.800Z,61.62
2019-02-08T12:33:19.767Z,62.04
2019-02-08T12:34:19.758Z,61.72
2019-02-08T12:35:19.736Z,61.52
2019-02-08T12:36:19.730Z,61.83
2019-02-08T12:37:19.727Z,61.62
2019-02-08T12:38:19.742Z,61.96
2019-02-08T12:39:19.698Z,62.27
2019-02-08T12:40:19.716Z,62.06
2019-02-08T12:41:19.688Z,62.37
2019-02-08T12:42:19.732Z,62.06
2019-02-08T12:43:19.656Z,62.48
2019-02-08T12:44:19.645Z,62.99
2019-02-08T12:45:19.695Z,62.48
2019-02-08T12:46:19.632Z,62.88
2019-02-08T12:47:19.611Z,63.09
2019-02-08T12:48:19.632Z,63.20
2019-02-08T12:49:19.615Z,62.78
2019-02-08T12:50:19.568Z,62.37
2019-02-08T12:51:19.563Z,62.58
2019-02-08T12:52:19.564Z,62.68